Time;durP1;ratioP1;P1;durP2;ratioP2;P2;SDS_P1;SDS_P2;PMS_P1;PMS_P2;Temp;Humidity;BMP_temperature;BMP_pressure;BME280_temperature;BME280_humidity;BME280_pressure;Samples;Min_cycle;Max_cycle;Signal;HPM_P1;HPM_P2
2023/08/05 00:00:45;;;;;;;8.60;5.15;;;;;;;20.07;90.29;98213.00;4494001;31;32944;-89
2023/08/05 00:03:13;;;;;;;9.82;6.10;;;;;;;20.05;89.63;98212.22;4496417;31;33831;-88
2023/08/05 00:05:42;;;;;;;9.00;5.65;;;;;;;20.19;88.68;98246.69;4511760;31;34060;-87
2023/08/05 00:08:09;;;;;;;9.45;5.22;;;;;;;20.07;89.95;98291.91;4510914;31;33760;-85
2023/08/05 00:10:43;;;;;;;7.62;4.47;;;;;;;20.03;91.01;98293.81;4511901;31;33879;-93
2023/08/05 00:13:11;;;;;;;7.00;4.10;;;;;;;20.15;89.90;98274.03;4511354;31;34046;-89
2023/08/05 00:15:39;;;;;;;7.93;4.55;;;;;;;19.93;91.79;98234.63;4510933;31;34011;-85
2023/08/05 00:18:07;;;;;;;8.13;4.10;;;;;;;20.32;88.66;98216.31;4511454;31;33675;-85
2023/08/05 00:20:34;;;;;;;6.03;3.40;;;;;;;20.17;89.12;98196.75;4510401;31;33356;-84
2023/08/05 00:23:03;;;;;;;5.93;3.78;;;;;;;20.16;88.14;98188.94;4510111;31;34598;-84
2023/08/05 00:25:30;;;;;;;5.82;3.30;;;;;;;19.98;89.69;98210.75;4510818;31;33149;-87
2023/08/05 00:27:58;;;;;;;7.65;3.05;;;;;;;20.02;89.38;98228.97;4510426;31;31853;-86
2023/08/05 00:30:25;;;;;;;6.50;3.22;;;;;;;20.24;88.40;98230.72;4511408;31;33001;-85
2023/08/05 00:32:53;;;;;;;5.37;2.78;;;;;;;19.90;90.52;98203.16;4497247;31;34730;-84
2023/08/05 00:35:22;;;;;;;5.35;2.28;;;;;;;19.90;90.46;98204.00;4511236;31;34020;-89
2023/08/05 00:37:53;;;;;;;4.55;2.00;;;;;;;20.06;88.82;98213.91;4508621;31;33917;-84
2023/08/05 00:40:20;;;;;;;6.57;2.42;;;;;;;20.33;86.31;98175.06;4493787;31;33252;-86
2023/08/05 00:42:48;;;;;;;5.25;2.22;;;;;;;20.11;88.44;98159.31;4498202;31;34638;-91
2023/08/05 00:45:16;;;;;;;4.97;2.20;;;;;;;20.69;85.15;98177.06;4495333;31;35720;-87
2023/08/05 00:47:43;;;;;;;4.65;2.30;;;;;;;20.56;84.34;98208.34;4491214;31;33555;-86
2023/08/05 00:50:12;;;;;;;5.55;2.37;;;;;;;20.68;84.85;98155.13;4484528;32;33268;-86
2023/08/05 00:52:40;;;;;;;4.35;2.35;;;;;;;20.25;87.52;98062.22;4483697;32;33679;-85
2023/08/05 00:55:08;;;;;;;5.50;2.87;;;;;;;20.32;87.33;98013.66;4459203;32;34834;-86
2023/08/05 00:57:35;;;;;;;7.45;3.17;;;;;;;20.02;89.50;97973.78;4469688;32;33899;-84
2023/08/05 01:00:04;;;;;;;5.22;3.55;;;;;;;20.02;90.12;97993.97;4486611;31;33127;-85
2023/08/05 01:02:32;;;;;;;6.32;3.65;;;;;;;20.54;86.31;98046.94;4486118;31;33754;-91
2023/08/05 01:05:00;;;;;;;6.32;3.62;;;;;;;20.50;87.16;98100.66;4483468;32;34989;-85
2023/08/05 01:07:28;;;;;;;6.37;3.50;;;;;;;20.56;86.38;98131.97;4484661;32;33903;-87
2023/08/05 01:09:55;;;;;;;6.12;3.90;;;;;;;20.80;84.74;98128.25;4487049;31;33306;-91
2023/08/05 01:12:23;;;;;;;8.27;4.43;;;;;;;20.80;85.36;98096.66;4473863;31;33910;-85
2023/08/05 01:14:51;;;;;;;9.90;5.12;;;;;;;20.71;86.16;98067.22;4467922;32;33323;-86
2023/08/05 01:17:18;;;;;;;7.97;4.80;;;;;;;20.81;85.80;98060.62;4469617;31;33723;-86
2023/08/05 01:19:46;;;;;;;8.07;4.97;;;;;;;21.02;84.76;98071.91;4485792;31;31720;-86
2023/08/05 01:22:24;;;;;;;8.32;5.00;;;;;;;21.07;84.48;98072.59;4476156;31;34046;-86
2023/08/05 01:25:05;;;;;;;8.00;5.43;;;;;;;21.06;84.66;98070.84;4473477;32;35194;-86
2023/08/05 01:27:34;;;;;;;8.25;5.90;;;;;;;21.25;84.20;98071.72;4482869;31;33843;-85
2023/08/05 01:30:03;;;;;;;20.30;5.65;;;;;;;20.99;86.12;98064.19;4486242;31;33440;-93
2023/08/05 01:32:32;;;;;;;8.18;6.10;;;;;;;20.55;89.80;98101.31;4500715;31;35116;-87
2023/08/05 01:35:00;;;;;;;8.27;5.40;;;;;;;20.53;89.86;98187.41;4499133;31;34197;-87
2023/08/05 01:37:29;;;;;;;10.55;6.12;;;;;;;21.28;84.66;98119.00;4498062;31;33962;-87
2023/08/05 01:39:57;;;;;;;12.10;7.07;;;;;;;21.08;85.25;98075.13;4496407;31;34211;-87
2023/08/05 01:42:24;;;;;;;8.00;6.22;;;;;;;20.97;86.67;98076.56;4500442;31;34891;-88
2023/08/05 01:44:52;;;;;;;7.72;5.40;;;;;;;21.26;84.82;98089.22;4495161;31;34029;-90
2023/08/05 01:47:19;;;;;;;7.85;5.62;;;;;;;21.20;84.90;98089.50;4495528;31;33562;-86
2023/08/05 01:49:47;;;;;;;9.82;5.60;;;;;;;21.52;83.00;98090.66;4471823;31;34105;-86
2023/08/05 01:52:14;;;;;;;12.88;5.85;;;;;;;21.70;81.92;98069.53;4472669;32;34076;-86
2023/08/05 01:54:43;;;;;;;7.55;5.93;;;;;;;21.51;82.76;98025.63;4479623;31;33548;-90
2023/08/05 01:57:11;;;;;;;7.50;6.00;;;;;;;21.23;84.57;98010.28;4489000;31;33642;-86
2023/08/05 01:59:38;;;;;;;9.77;5.70;;;;;;;21.40;84.04;98025.28;4483016;32;33533;-86
2023/08/05 02:02:06;;;;;;;8.65;6.18;;;;;;;21.30;84.27;98010.84;4483954;32;33388;-86
2023/08/05 02:04:34;;;;;;;8.20;5.72;;;;;;;21.09;86.10;98012.72;4494935;31;34916;-87
2023/08/05 02:07:01;;;;;;;8.35;5.90;;;;;;;21.08;86.41;98032.97;4485697;31;33962;-90
2023/08/05 02:09:29;;;;;;;8.77;5.95;;;;;;;21.42;84.03;98014.69;4483695;32;33440;-87
2023/08/05 02:11:57;;;;;;;8.43;6.30;;;;;;;21.30;84.85;97985.34;4490040;31;34023;-86
2023/08/05 02:14:24;;;;;;;8.20;6.80;;;;;;;21.05;86.19;97953.19;4484360;32;34194;-84
2023/08/05 02:16:53;;;;;;;9.93;6.37;;;;;;;20.88;87.34;97965.41;4496770;31;34461;-87
2023/08/05 02:19:20;;;;;;;9.45;6.25;;;;;;;21.34;84.08;97973.75;4484384;31;33675;-86
2023/08/05 02:21:48;;;;;;;8.55;6.75;;;;;;;21.45;83.78;97969.72;4484353;32;33810;-90
2023/08/05 02:24:16;;;;;;;9.18;6.32;;;;;;;21.73;81.68;97967.38;4483596;32;34489;-88
2023/08/05 02:26:43;;;;;;;10.13;7.12;;;;;;;21.55;82.56;97963.03;4496015;31;33662;-86
2023/08/05 02:29:10;;;;;;;9.60;7.35;;;;;;;21.24;84.65;97963.69;4485425;31;33570;-86
2023/08/05 02:31:39;;;;;;;10.15;7.37;;;;;;;21.68;82.17;97982.59;4483897;31;33645;-86
2023/08/05 02:34:06;;;;;;;10.02;7.18;;;;;;;21.86;81.12;97979.00;4484282;31;34139;-86
2023/08/05 02:36:34;;;;;;;9.35;6.43;;;;;;;22.04;80.28;97960.50;4485219;31;33403;-85
2023/08/05 02:39:02;;;;;;;9.93;6.57;;;;;;;22.14;79.08;97951.19;4483962;32;34596;-91
2023/08/05 02:41:30;;;;;;;8.00;6.40;;;;;;;22.17;79.02;97953.66;4484140;32;33966;-86
2023/08/05 02:43:57;;;;;;;9.60;6.75;;;;;;;22.26;78.38;97965.50;4493049;31;34149;-87
2023/08/05 02:46:25;;;;;;;9.77;7.03;;;;;;;22.07;79.30;97987.56;4487378;31;33831;-86
2023/08/05 02:48:52;;;;;;;9.40;7.07;;;;;;;21.95;80.34;97997.94;4483762;31;33221;-86
2023/08/05 02:51:20;;;;;;;10.75;7.03;;;;;;;21.89;81.16;97985.03;4483742;31;33937;-86
2023/08/05 02:53:48;;;;;;;8.77;7.22;;;;;;;21.76;81.50;97969.84;4486180;31;34337;-87
2023/08/05 02:56:16;;;;;;;11.93;7.50;;;;;;;21.87;81.24;97998.31;4498949;31;33784;-86
2023/08/05 02:58:43;;;;;;;9.20;7.32;;;;;;;21.86;81.69;98042.34;4499313;31;33564;-86
2023/08/05 03:01:12;;;;;;;11.18;7.57;;;;;;;21.48;85.01;98112.81;4492430;31;33708;-87
2023/08/05 03:03:40;;;;;;;11.10;7.37;;;;;;;21.58;84.19;98115.84;4477377;31;34196;-87
2023/08/05 03:06:07;;;;;;;9.93;6.57;;;;;;;21.47;84.20;98119.00;4495546;31;33766;-86
2023/08/05 03:08:35;;;;;;;9.35;6.60;;;;;;;21.28;84.09;98097.91;4471577;31;34055;-88
2023/08/05 03:11:04;;;;;;;9.93;6.53;;;;;;;21.10;84.75;98064.50;4487838;31;33772;-88
2023/08/05 03:13:31;;;;;;;9.52;6.90;;;;;;;21.30;83.47;98037.22;4493798;31;34159;-91
2023/08/05 03:16:07;;;;;;;9.48;6.45;;;;;;;21.60;81.27;98040.16;4483937;31;33728;-85
2023/08/05 03:18:36;;;;;;;9.80;6.43;;;;;;;21.52;82.51;98064.28;4453950;32;33700;-85
2023/08/05 03:21:04;;;;;;;8.90;6.57;;;;;;;21.85;80.96;98051.16;4469988;31;33880;-84
2023/08/05 03:23:31;;;;;;;11.60;6.85;;;;;;;21.41;82.43;98048.13;4489097;31;34683;-85
2023/08/05 03:25:59;;;;;;;11.38;7.53;;;;;;;20.99;86.12;98124.78;4492369;31;33600;-86
2023/08/05 03:28:27;;;;;;;12.07;6.47;;;;;;;21.69;81.81;98161.03;4479492;32;33418;-86
2023/08/05 03:30:54;;;;;;;8.38;6.50;;;;;;;21.06;85.29;98171.00;4476212;31;34572;-84
2023/08/05 03:33:23;;;;;;;9.77;6.68;;;;;;;20.66;88.17;98172.78;4481289;31;34891;-85
2023/08/05 03:35:50;;;;;;;10.82;6.90;;;;;;;20.88;87.24;98138.44;4472821;32;33823;-86
2023/08/05 03:38:18;;;;;;;13.27;6.40;;;;;;;20.96;86.26;98074.88;4484121;31;34306;-86
2023/08/05 03:40:46;;;;;;;9.93;6.72;;;;;;;20.89;86.70;98043.53;4484035;31;34165;-90
2023/08/05 03:43:14;;;;;;;11.00;7.37;;;;;;;20.79;88.01;98022.94;4485629;31;34248;-90
2023/08/05 03:45:49;;;;;;;9.63;6.45;;;;;;;21.00;86.51;98034.25;4490969;31;34438;-86
2023/08/05 03:48:17;;;;;;;9.88;7.07;;;;;;;20.73;87.31;98031.16;4466351;32;34163;-86
2023/08/05 03:50:45;;;;;;;9.88;6.95;;;;;;;20.90;86.44;98041.75;4484619;31;34888;-91
2023/08/05 03:53:12;;;;;;;11.85;7.37;;;;;;;20.88;86.93;98048.88;4484973;31;34749;-84
2023/08/05 03:55:40;;;;;;;9.68;7.43;;;;;;;21.21;84.91;98050.81;4495786;31;34347;-86
2023/08/05 03:58:08;;;;;;;8.73;6.82;;;;;;;20.83;87.44;98042.94;4485084;31;32753;-92
2023/08/05 04:00:39;;;;;;;10.40;7.53;;;;;;;21.10;85.00;98039.03;4483233;32;33670;-85
2023/08/05 04:03:07;;;;;;;11.63;7.28;;;;;;;21.47;83.07;98028.50;4483053;31;34106;-84
2023/08/05 04:05:35;;;;;;;13.07;7.10;;;;;;;21.47;82.94;98025.84;4486569;31;33723;-95
2023/08/05 04:08:03;;;;;;;7.90;6.85;;;;;;;21.46;82.87;98021.53;4468678;32;34242;-87
2023/08/05 04:10:34;;;;;;;10.43;7.03;;;;;;;21.52;82.93;98026.50;4483309;32;33974;-86
2023/08/05 04:13:03;;;;;;;10.95;7.20;;;;;;;21.54;82.86;98025.47;4470989;32;34983;-91
2023/08/05 04:15:33;;;;;;;10.93;6.65;;;;;;;21.33;84.68;98027.41;4491008;31;34788;-86
2023/08/05 04:18:03;;;;;;;9.50;7.40;;;;;;;21.19;85.17;98042.16;4498730;31;33469;-85
2023/08/05 04:20:31;;;;;;;11.38;6.87;;;;;;;21.37;84.06;98050.06;4498783;31;33920;-84
2023/08/05 04:22:59;;;;;;;8.55;6.35;;;;;;;21.63;82.75;98066.38;4494642;31;34751;-85
2023/08/05 04:25:29;;;;;;;9.40;6.37;;;;;;;21.51;83.59;98059.91;4469330;31;32437;-90
2023/08/05 04:27:57;;;;;;;8.27;6.35;;;;;;;21.80;81.82;98063.75;4483746;32;33261;-86
2023/08/05 04:30:25;;;;;;;9.55;6.60;;;;;;;21.62;83.28;98069.94;4489927;31;33601;-91
2023/08/05 04:32:52;;;;;;;11.15;6.28;;;;;;;21.07;86.14;98062.03;4496963;31;35055;-96
2023/08/05 04:35:20;;;;;;;9.30;6.20;;;;;;;21.05;86.36;98075.28;4489867;31;33961;-85
2023/08/05 04:37:47;;;;;;;10.27;5.82;;;;;;;21.21;85.12;98070.13;4484781;32;33382;-86
2023/08/05 04:40:15;;;;;;;9.00;5.68;;;;;;;21.43;83.95;98080.53;4485680;31;34787;-85
2023/08/05 04:42:43;;;;;;;8.32;5.95;;;;;;;21.62;82.78;98065.50;4491566;31;34244;-91
2023/08/05 04:45:11;;;;;;;9.57;5.72;;;;;;;21.53;83.32;98071.25;4491167;31;33952;-85
2023/08/05 04:47:38;;;;;;;8.32;5.70;;;;;;;21.37;84.08;98065.03;4485707;31;33491;-93
2023/08/05 04:50:06;;;;;;;9.32;5.10;;;;;;;20.98;86.46;98036.09;4472519;31;34055;-91
2023/08/05 04:52:34;;;;;;;7.25;5.82;;;;;;;21.06;85.72;98034.84;4486305;31;33978;-92
2023/08/05 04:55:11;;;;;;;7.65;5.10;;;;;;;21.18;85.10;98027.28;4493672;31;34761;-84
2023/08/05 04:57:39;;;;;;;7.87;5.70;;;;;;;21.27;84.29;98003.09;4487818;31;34098;-86
2023/08/05 05:00:07;;;;;;;8.75;5.57;;;;;;;21.49;83.13;98011.69;4484685;31;34604;-85
2023/08/05 05:02:34;;;;;;;8.07;5.00;;;;;;;21.64;82.32;98010.06;4494237;31;34093;-83
2023/08/05 05:05:03;;;;;;;7.60;5.50;;;;;;;21.90;80.78;98015.78;4497056;31;34498;-87
2023/08/05 05:07:30;;;;;;;8.27;5.45;;;;;;;22.07;80.32;98018.41;4485526;31;33211;-92
2023/08/05 05:10:00;;;;;;;10.57;6.10;;;;;;;21.91;81.38;98022.78;4491250;31;33990;-95
2023/08/05 05:12:28;;;;;;;9.57;5.72;;;;;;;21.76;82.88;98027.03;4475917;31;34204;-93
2023/08/05 05:15:13;;;;;;;9.05;5.93;;;;;;;21.91;82.47;98018.34;4491616;31;34560;-87
2023/08/05 05:17:41;;;;;;;7.68;5.97;;;;;;;22.01;82.38;98016.06;4456559;31;32675;-93
2023/08/05 05:20:09;;;;;;;9.75;5.72;;;;;;;22.13;81.78;98012.81;4487964;31;34610;-89
2023/08/05 05:22:37;;;;;;;7.18;5.87;;;;;;;22.40;81.11;98010.53;4497175;31;34287;-86
2023/08/05 05:25:05;;;;;;;9.40;6.20;;;;;;;22.59;80.53;97995.38;4499059;31;33939;-83
2023/08/05 05:27:51;;;;;;;9.70;6.20;;;;;;;22.58;80.58;97995.47;4478315;31;34133;-87
2023/08/05 05:30:19;;;;;;;7.12;5.20;;;;;;;22.98;80.30;98003.84;4486324;32;34935;-87
2023/08/05 05:32:46;;;;;;;10.98;5.55;;;;;;;23.32;78.02;98005.44;4482598;31;34915;-86
2023/08/05 05:35:14;;;;;;;8.20;5.00;;;;;;;23.75;76.62;98001.19;4480134;31;34545;-85
2023/08/05 05:37:41;;;;;;;8.63;5.03;;;;;;;24.01;75.37;97994.31;4504595;31;34225;-87
2023/08/05 05:40:09;;;;;;;14.55;5.78;;;;;;;23.90;75.80;97993.25;4490151;32;33965;-87
2023/08/05 05:42:40;;;;;;;6.00;4.40;;;;;;;24.21;75.44;97998.41;4489917;32;34729;-87
2023/08/05 05:45:08;;;;;;;9.63;5.05;;;;;;;24.47;73.89;97988.87;4486498;31;34793;-87
2023/08/05 05:47:35;;;;;;;10.60;5.85;;;;;;;24.52;72.93;97985.94;4495244;31;34055;-87
2023/08/05 05:50:03;;;;;;;7.93;4.85;;;;;;;25.00;72.40;97976.66;4506823;31;33950;-87
2023/08/05 05:52:31;;;;;;;9.10;5.70;;;;;;;24.56;71.85;97994.53;4491478;31;34145;-87
2023/08/05 05:54:59;;;;;;;7.60;5.25;;;;;;;24.97;71.69;98000.72;4502766;31;33656;-87
2023/08/05 05:57:27;;;;;;;8.18;5.35;;;;;;;25.07;70.68;97998.31;4480747;31;33412;-86
2023/08/05 05:59:55;;;;;;;8.35;5.70;;;;;;;25.02;70.68;98000.41;4470994;32;32245;-87
2023/08/05 06:02:23;;;;;;;8.75;5.18;;;;;;;24.81;71.21;97999.97;4487079;31;33756;-87
2023/08/05 06:04:51;;;;;;;7.68;5.85;;;;;;;25.13;70.26;97986.50;4508564;31;33898;-87
2023/08/05 06:07:19;;;;;;;7.30;5.15;;;;;;;25.26;72.01;98002.44;4490901;31;34433;-86
2023/08/05 06:09:46;;;;;;;6.60;4.95;;;;;;;25.34;71.49;98002.78;4498029;31;33952;-86
2023/08/05 06:12:17;;;;;;;10.13;5.22;;;;;;;25.19;71.01;97999.34;4499179;31;34771;-86
2023/08/05 06:14:45;;;;;;;7.40;5.32;;;;;;;25.09;71.26;97988.47;4476135;32;32991;-86
2023/08/05 06:17:12;;;;;;;7.68;4.93;;;;;;;24.97;70.97;98010.47;4489023;32;33745;-86
2023/08/05 06:19:40;;;;;;;7.40;5.03;;;;;;;24.93;71.01;98003.66;4497169;31;34570;-87
2023/08/05 06:22:08;;;;;;;9.35;5.22;;;;;;;25.53;70.44;98005.91;4490937;31;34851;-88
2023/08/05 06:24:35;;;;;;;7.68;4.90;;;;;;;25.15;69.55;98013.75;4488421;32;34454;-96
2023/08/05 06:27:03;;;;;;;8.10;5.28;;;;;;;24.47;72.22;98015.38;4478886;32;33825;-86
2023/08/05 06:29:30;;;;;;;6.22;5.07;;;;;;;24.79;71.23;98011.66;4478699;32;33695;-91
2023/08/05 06:31:58;;;;;;;9.18;5.65;;;;;;;24.56;71.47;98019.25;4487267;31;34942;-86
2023/08/05 06:34:26;;;;;;;7.65;4.90;;;;;;;24.32;72.49;98018.06;4502093;31;34300;-87
2023/08/05 06:36:53;;;;;;;8.02;5.32;;;;;;;24.08;73.35;98015.12;4495272;31;34317;-87
2023/08/05 06:39:21;;;;;;;6.97;5.03;;;;;;;24.24;73.70;98011.47;4503145;31;34798;-95
2023/08/05 06:41:49;;;;;;;6.30;4.80;;;;;;;24.24;73.96;98014.13;4474259;31;35416;-88
2023/08/05 06:44:37;;;;;;;7.03;4.70;;;;;;;24.14;73.65;98012.13;4481259;32;34504;-86
2023/08/05 06:47:05;;;;;;;7.10;4.47;;;;;;;24.62;73.23;98008.25;4494330;31;33583;-87
2023/08/05 06:49:34;;;;;;;6.60;4.00;;;;;;;24.79;71.02;98014.28;4483495;31;34065;-91
2023/08/05 06:52:02;;;;;;;5.43;3.55;;;;;;;25.01;70.15;98011.97;4492010;31;33836;-86
2023/08/05 06:54:29;;;;;;;6.62;4.07;;;;;;;24.70;70.92;98024.53;4488822;31;33990;-85
2023/08/05 06:56:57;;;;;;;6.78;4.00;;;;;;;24.89;71.10;98016.28;4490590;31;34279;-84
2023/08/05 06:59:26;;;;;;;7.85;4.30;;;;;;;24.41;72.29;98023.69;4485928;32;33921;-83
2023/08/05 07:01:54;;;;;;;5.70;4.00;;;;;;;24.68;71.21;98025.56;4483234;32;34882;-85
2023/08/05 07:04:22;;;;;;;7.47;4.75;;;;;;;24.98;70.88;98034.22;4496428;31;33396;-85
2023/08/05 07:06:49;;;;;;;6.40;4.30;;;;;;;25.23;71.02;98025.59;4499273;31;33027;-82
2023/08/05 07:09:17;;;;;;;6.97;4.95;;;;;;;25.05;68.52;98026.75;4498251;31;33509;-94
2023/08/05 07:11:45;;;;;;;6.62;4.60;;;;;;;25.69;68.76;98029.66;4498839;31;33391;-93
2023/08/05 07:14:12;;;;;;;6.25;4.35;;;;;;;25.51;69.20;98038.84;4481402;31;34517;-85
2023/08/05 07:16:40;;;;;;;7.37;4.68;;;;;;;25.28;69.48;98046.50;4469238;32;33514;-86
2023/08/05 07:19:08;;;;;;;9.32;5.30;;;;;;;25.76;68.38;98040.69;4491809;31;34914;-86
2023/08/05 07:21:38;;;;;;;6.65;5.30;;;;;;;25.63;69.19;98046.81;4499028;31;32762;-87
2023/08/05 07:24:05;;;;;;;8.60;5.62;;;;;;;25.03;69.40;98046.34;4488617;31;33628;-87
2023/08/05 07:26:33;;;;;;;9.23;5.45;;;;;;;25.23;68.92;98033.53;4484332;32;33228;-87
2023/08/05 07:29:00;;;;;;;7.78;5.78;;;;;;;25.59;69.75;98029.41;4486582;31;34781;-86
2023/08/05 07:31:28;;;;;;;8.02;5.75;;;;;;;25.73;68.33;98024.03;4489692;31;33725;-86
2023/08/05 07:33:55;;;;;;;12.45;5.75;;;;;;;25.91;67.61;98023.75;4488701;31;34685;-90
2023/08/05 07:36:23;;;;;;;8.82;5.32;;;;;;;25.80;67.21;98027.16;4498418;31;33250;-89
2023/08/05 07:38:52;;;;;;;8.23;5.32;;;;;;;26.16;66.83;98023.78;4498223;31;34176;-88
2023/08/05 07:41:22;;;;;;;7.70;5.35;;;;;;;26.20;66.45;98025.28;4488503;31;34402;-93
2023/08/05 07:43:50;;;;;;;8.50;6.25;;;;;;;26.15;66.76;98019.44;4467057;31;33438;-95
2023/08/05 07:46:19;;;;;;;9.18;5.95;;;;;;;26.14;65.85;98020.41;4467874;32;33336;-91
2023/08/05 07:48:50;;;;;;;10.23;6.82;;;;;;;26.06;66.62;98017.41;4472912;31;33643;-87
2023/08/05 07:51:18;;;;;;;8.23;5.75;;;;;;;26.01;67.04;98019.53;4486584;31;34173;-87
2023/08/05 07:53:49;;;;;;;7.45;5.95;;;;;;;26.14;66.60;98008.94;4499004;31;34655;-87
2023/08/05 07:56:17;;;;;;;9.00;5.70;;;;;;;25.98;67.05;98022.38;4495297;31;34402;-87
2023/08/05 07:58:47;;;;;;;9.35;5.75;;;;;;;25.98;67.08;98025.03;4470039;32;33919;-86
2023/08/05 08:01:22;;;;;;;7.40;5.78;;;;;;;26.61;66.35;98026.87;4488699;31;34189;-88
2023/08/05 08:03:53;;;;;;;9.55;6.05;;;;;;;26.30;65.14;98014.88;4500240;31;33953;-85
2023/08/05 08:06:22;;;;;;;8.43;5.68;;;;;;;25.93;67.29;98016.56;4483179;31;34410;-89
2023/08/05 08:08:49;;;;;;;7.40;5.70;;;;;;;26.28;67.40;98031.88;4475989;32;33069;-87
2023/08/05 08:11:17;;;;;;;8.55;5.65;;;;;;;26.73;64.55;98029.63;4474174;31;34467;-91
2023/08/05 08:13:44;;;;;;;7.45;6.03;;;;;;;26.45;66.09;98028.91;4487857;31;34694;-87
2023/08/05 08:16:13;;;;;;;9.75;5.70;;;;;;;26.38;64.85;98031.12;4487233;31;34353;-87
2023/08/05 08:18:41;;;;;;;8.45;5.50;;;;;;;26.49;66.42;98035.72;4485766;31;33761;-87
2023/08/05 08:21:09;;;;;;;7.57;5.72;;;;;;;26.27;66.24;98041.66;4483536;32;32623;-90
2023/08/05 08:23:36;;;;;;;10.32;5.72;;;;;;;26.37;64.79;98040.06;4484988;32;33480;-87
2023/08/05 08:26:04;;;;;;;11.18;5.72;;;;;;;26.57;65.37;98041.34;4486331;31;34150;-86
2023/08/05 08:28:31;;;;;;;6.82;5.32;;;;;;;26.49;65.08;98050.84;4500251;31;33698;-86
2023/08/05 08:30:59;;;;;;;9.80;5.62;;;;;;;26.28;67.19;98045.16;4485375;32;35018;-87
2023/08/05 08:33:27;;;;;;;10.20;6.62;;;;;;;26.17;66.07;98054.69;4484035;32;33969;-87
2023/08/05 08:35:55;;;;;;;8.65;6.50;;;;;;;26.12;67.28;98064.81;4484451;31;33276;-85
2023/08/05 08:38:22;;;;;;;11.35;6.90;;;;;;;25.89;67.62;98078.78;4485289;32;33893;-91
2023/08/05 08:40:52;;;;;;;9.07;6.80;;;;;;;25.91;68.15;98074.22;4498840;31;34057;-87
2023/08/05 08:43:21;;;;;;;8.00;6.62;;;;;;;26.18;67.29;98069.72;4492054;31;34862;-84
2023/08/05 08:45:52;;;;;;;11.07;7.53;;;;;;;25.75;68.18;98077.00;4485535;31;33455;-87
2023/08/05 08:48:20;;;;;;;11.45;8.05;;;;;;;25.84;67.96;98086.22;4483454;32;34907;-87
2023/08/05 08:50:52;;;;;;;9.15;7.50;;;;;;;26.14;67.05;98089.47;4498962;31;33804;-85
2023/08/05 08:53:21;;;;;;;9.32;7.57;;;;;;;26.04;67.46;98084.88;4493923;31;34537;-88
2023/08/05 08:55:49;;;;;;;9.98;7.70;;;;;;;26.28;65.87;98075.22;4470594;32;32777;-86
2023/08/05 08:58:16;;;;;;;11.15;8.27;;;;;;;25.99;67.41;98074.56;4482725;32;34653;-89
2023/08/05 09:00:45;;;;;;;12.80;8.90;;;;;;;26.10;68.25;98068.50;4497627;31;34849;-85
2023/08/05 09:03:13;;;;;;;9.90;8.63;;;;;;;25.95;68.54;98078.41;4497830;31;34877;-88
2023/08/05 09:05:44;;;;;;;11.52;8.95;;;;;;;26.19;67.70;98081.19;4473011;31;34298;-88
2023/08/05 09:08:12;;;;;;;12.95;9.98;;;;;;;26.22;67.52;98072.16;4499451;31;34757;-88
2023/08/05 09:10:40;;;;;;;11.27;9.15;;;;;;;26.33;67.45;98073.13;4484112;31;34131;-89
2023/08/05 09:13:07;;;;;;;13.07;9.55;;;;;;;26.41;67.71;98067.28;4487595;31;34272;-87
2023/08/05 09:15:36;;;;;;;11.60;10.10;;;;;;;26.30;67.19;98069.81;4485113;31;33082;-86
2023/08/05 09:18:05;;;;;;;12.30;10.32;;;;;;;26.09;66.98;98066.81;4500587;31;34315;-88
2023/08/05 09:20:34;;;;;;;14.48;10.00;;;;;;;26.02;67.65;98058.41;4478452;31;35075;-86
2023/08/05 09:23:06;;;;;;;14.93;10.85;;;;;;;26.03;68.32;98054.81;4478119;31;34157;-87
2023/08/05 09:25:40;;;;;;;13.15;11.57;;;;;;;26.13;68.49;98055.88;4485620;31;33551;-86
2023/08/05 09:28:08;;;;;;;16.27;12.13;;;;;;;25.97;67.48;98057.87;4471956;32;34719;-85
2023/08/05 09:30:36;;;;;;;14.60;10.77;;;;;;;25.99;67.77;98060.41;4488166;31;34899;-87
2023/08/05 09:33:04;;;;;;;13.13;10.95;;;;;;;26.13;68.12;98063.00;4496741;31;33705;-88
2023/08/05 09:35:32;;;;;;;16.92;11.80;;;;;;;26.16;68.79;98058.31;4484691;31;33145;-87
2023/08/05 09:38:01;;;;;;;14.15;12.30;;;;;;;26.66;66.93;98064.63;4483650;31;34445;-85
2023/08/05 09:40:32;;;;;;;14.87;11.82;;;;;;;26.47;66.60;98058.03;4468998;32;34906;-87
2023/08/05 09:43:02;;;;;;;13.35;11.95;;;;;;;26.54;67.32;98062.81;4469522;31;33838;-87
2023/08/05 09:45:33;;;;;;;15.48;13.70;;;;;;;26.38;67.99;98055.03;4477402;31;33668;-83
2023/08/05 09:48:09;;;;;;;15.85;14.25;;;;;;;26.31;67.69;98053.75;4484831;31;33272;-90
2023/08/05 09:50:38;;;;;;;21.87;15.82;;;;;;;26.33;67.77;98046.56;4481202;32;34199;-89
2023/08/05 09:53:08;;;;;;;17.33;14.57;;;;;;;26.62;66.87;98047.19;4484841;32;33820;-87
2023/08/05 09:55:39;;;;;;;17.27;14.75;;;;;;;26.50;66.81;98044.53;4484805;31;34397;-87
2023/08/05 09:58:07;;;;;;;16.80;15.00;;;;;;;26.71;67.24;98050.16;4483172;31;34316;-87
2023/08/05 10:00:37;;;;;;;16.55;14.80;;;;;;;26.76;67.98;98043.56;4482490;31;35135;-85
2023/08/05 10:03:07;;;;;;;16.20;13.82;;;;;;;27.09;66.50;98045.62;4483190;32;33951;-86
2023/08/05 10:05:35;;;;;;;17.00;15.20;;;;;;;27.05;65.77;98057.44;4482235;31;33396;-86
2023/08/05 10:08:05;;;;;;;17.58;15.32;;;;;;;26.81;66.08;98061.84;4484553;32;34885;-88
2023/08/05 10:10:35;;;;;;;23.08;15.57;;;;;;;26.98;65.13;98050.84;4489889;31;34644;-87
2023/08/05 10:13:08;;;;;;;19.52;15.35;;;;;;;26.93;65.68;98060.97;4470688;31;31188;-87
2023/08/05 10:15:57;;;;;;;16.08;14.38;;;;;;;27.03;65.49;98061.16;4477362;31;33488;-86
2023/08/05 10:18:25;;;;;;;18.77;14.75;;;;;;;27.13;66.14;98063.09;4484488;32;33679;-87
2023/08/05 10:20:52;;;;;;;18.10;15.65;;;;;;;26.92;66.36;98070.75;4495112;31;34225;-86
2023/08/05 10:23:25;;;;;;;19.67;15.52;;;;;;;26.83;66.75;98062.59;4489246;31;34011;-87
2023/08/05 10:25:59;;;;;;;17.80;15.88;;;;;;;27.12;65.90;98060.50;4467493;32;33255;-87
2023/08/05 10:28:26;;;;;;;20.67;16.87;;;;;;;27.15;66.33;98049.66;4467332;32;33949;-83
2023/08/05 10:30:54;;;;;;;25.67;17.25;;;;;;;27.14;65.73;98051.47;4496998;31;34269;-86
2023/08/05 10:33:24;;;;;;;20.02;16.92;;;;;;;27.31;64.52;98054.69;4489296;31;33576;-89
2023/08/05 10:36:00;;;;;;;19.35;17.25;;;;;;;27.27;65.17;98053.22;4500607;31;33199;-88
2023/08/05 10:38:40;;;;;;;18.58;16.67;;;;;;;27.23;65.36;98049.94;4495968;31;33949;-86
2023/08/05 10:41:10;;;;;;;22.15;19.00;;;;;;;27.47;65.43;98057.97;4498985;31;34238;-88
2023/08/05 10:43:38;;;;;;;20.77;18.67;;;;;;;27.67;63.76;98050.28;4485793;31;34566;-92
2023/08/05 10:46:06;;;;;;;20.83;18.65;;;;;;;27.46;63.83;98045.59;4469870;32;33862;-87
2023/08/05 10:48:49;;;;;;;21.27;18.55;;;;;;;27.57;64.20;98050.13;4474791;31;34613;-89
2023/08/05 10:51:18;;;;;;;21.00;18.23;;;;;;;27.63;62.83;98049.66;4475428;31;34215;-87
2023/08/05 10:53:51;;;;;;;21.60;19.35;;;;;;;27.73;63.13;98057.81;4481810;31;34732;-88
2023/08/05 10:56:19;;;;;;;19.52;17.52;;;;;;;27.83;62.04;98053.53;4479098;31;33633;-88
2023/08/05 10:58:48;;;;;;;20.23;17.70;;;;;;;27.39;64.46;98053.19;4487847;31;33594;-86
2023/08/05 11:01:17;;;;;;;20.05;17.87;;;;;;;27.78;63.30;98047.72;4493706;31;34121;-89
2023/08/05 11:03:49;;;;;;;19.83;16.58;;;;;;;27.72;64.75;98053.44;4489222;31;33762;-85
2023/08/05 11:06:24;;;;;;;19.27;16.60;;;;;;;27.85;63.90;98051.63;4483827;32;33347;-90
2023/08/05 11:08:52;;;;;;;18.90;16.87;;;;;;;27.71;63.65;98046.44;4484315;32;34116;-90
2023/08/05 11:11:19;;;;;;;18.85;16.30;;;;;;;27.83;64.76;98046.38;4469480;32;32764;-87
2023/08/05 11:13:48;;;;;;;19.20;17.20;;;;;;;28.21;61.79;98049.75;4483655;31;33950;-86
2023/08/05 11:16:18;;;;;;;20.73;17.20;;;;;;;27.83;62.78;98045.53;4486597;31;33337;-85
2023/08/05 11:18:55;;;;;;;21.02;16.08;;;;;;;28.00;62.70;98053.09;4486067;31;33618;-86
2023/08/05 11:21:24;;;;;;;17.80;15.90;;;;;;;27.73;64.19;98045.38;4480524;31;35087;-87
2023/08/05 11:23:52;;;;;;;18.05;16.10;;;;;;;27.83;63.42;98056.19;4478663;31;34580;-85
2023/08/05 11:26:22;;;;;;;19.98;15.65;;;;;;;27.81;63.94;98056.31;4469137;31;34207;-89
2023/08/05 11:28:50;;;;;;;19.40;14.90;;;;;;;27.87;64.35;98061.16;4476681;31;33803;-86
2023/08/05 11:31:25;;;;;;;19.05;14.87;;;;;;;27.80;63.84;98067.91;4492534;31;34963;-84
2023/08/05 11:33:53;;;;;;;16.83;13.95;;;;;;;27.82;64.18;98066.00;4479282;31;34764;-86
2023/08/05 11:36:28;;;;;;;17.65;14.45;;;;;;;27.79;64.05;98062.72;4475071;31;33437;-84